Time;durP1;ratioP1;P1;durP2;ratioP2;P2;SDS_P1;SDS_P2;PMS_P1;PMS_P2;Temp;Humidity;BMP_temperature;BMP_pressure;BME280_temperature;BME280_humidity;BME280_pressure;Samples;Min_cycle;Max_cycle;Signal;HPM_P1;HPM_P2
2023/03/21 00:02:15;;;;;;;72.57;31.60;;;9.40;99.90;;;;;;7357037;19;20512;-71
2023/03/21 00:04:42;;;;;;;74.65;32.85;;;9.40;99.90;;;;;;7364116;19;20022;-71
2023/03/21 00:07:08;;;;;;;71.45;31.92;;;9.40;99.90;;;;;;7368743;19;20022;-71
2023/03/21 00:09:34;;;;;;;60.15;30.83;;;9.30;99.90;;;;;;7368761;19;20600;-71
2023/03/21 00:12:01;;;;;;;65.65;30.02;;;9.40;99.90;;;;;;7375324;19;20022;-80
2023/03/21 00:14:29;;;;;;;63.88;31.85;;;9.40;99.90;;;;;;7382505;19;20022;-79
2023/03/21 00:16:56;;;;;;;63.75;31.60;;;9.40;99.90;;;;;;7386016;19;20046;-79
2023/03/21 00:19:25;;;;;;;64.05;31.33;;;9.40;99.90;;;;;;7384551;19;20014;-79
2023/03/21 00:21:53;;;;;;;66.78;32.35;;;9.40;99.90;;;;;;7382770;19;20015;-80
2023/03/21 00:24:20;;;;;;;68.20;31.27;;;9.40;99.90;;;;;;7380707;19;20019;-79
2023/03/21 00:26:47;;;;;;;58.42;30.77;;;9.40;99.90;;;;;;7378672;19;20370;-80
2023/03/21 00:29:13;;;;;;;58.05;28.42;;;9.40;99.90;;;;;;7372381;19;20025;-80
2023/03/21 00:31:39;;;;;;;61.65;29.45;;;9.40;99.90;;;;;;7376845;19;20529;-80
2023/03/21 00:34:05;;;;;;;50.30;26.83;;;9.40;99.90;;;;;;7377154;19;20067;-80
2023/03/21 00:36:32;;;;;;;54.33;28.90;;;9.40;99.90;;;;;;7376142;19;20039;-81
2023/03/21 00:39:00;;;;;;;51.42;26.35;;;9.40;99.90;;;;;;7375217;19;20015;-80
2023/03/21 00:41:26;;;;;;;51.15;27.77;;;9.40;99.90;;;;;;7369642;19;20660;-70
2023/03/21 00:43:54;;;;;;;50.83;25.85;;;9.40;99.90;;;;;;7369020;19;20520;-70
2023/03/21 00:46:20;;;;;;;54.28;27.85;;;9.40;99.90;;;;;;7379555;19;20018;-80
2023/03/21 00:48:46;;;;;;;57.03;29.08;;;9.40;99.90;;;;;;7380912;19;20042;-80
2023/03/21 00:51:25;;;;;;;60.13;29.40;;;9.40;99.90;;;;;;7376069;19;20043;-70
2023/03/21 00:53:57;;;;;;;52.47;27.20;;;9.40;99.90;;;;;;7373359;19;20490;-70
2023/03/21 00:56:27;;;;;;;54.88;29.27;;;9.40;99.90;;;;;;7372548;19;20125;-70
2023/03/21 00:58:53;;;;;;;58.30;28.83;;;9.40;99.90;;;;;;7375458;19;20022;-70
2023/03/21 01:01:19;;;;;;;53.03;29.88;;;9.40;99.90;;;;;;7376029;19;20541;-80
2023/03/21 01:03:49;;;;;;;63.75;32.25;;;9.50;99.90;;;;;;7379314;19;20796;-79
2023/03/21 01:06:20;;;;;;;59.00;29.48;;;9.40;99.90;;;;;;7382075;19;20018;-79
2023/03/21 01:08:47;;;;;;;50.05;27.17;;;9.40;99.90;;;;;;7377665;19;20715;-80
2023/03/21 01:11:17;;;;;;;50.58;27.35;;;9.50;99.90;;;;;;7376916;19;20043;-71
2023/03/21 01:13:45;;;;;;;54.65;27.60;;;9.50;99.90;;;;;;7370600;19;20047;-70
2023/03/21 01:16:11;;;;;;;55.45;28.40;;;9.40;99.90;;;;;;7371599;19;20026;-70
2023/03/21 01:18:39;;;;;;;48.63;27.05;;;9.40;99.90;;;;;;7370313;19;20015;-70
2023/03/21 01:21:09;;;;;;;59.05;29.52;;;9.50;99.90;;;;;;7372940;19;20042;-71
2023/03/21 01:23:37;;;;;;;53.75;27.70;;;9.50;99.90;;;;;;7369607;19;20018;-70
2023/03/21 01:26:03;;;;;;;54.95;28.63;;;9.40;99.90;;;;;;7375481;19;20026;-78
2023/03/21 01:28:29;;;;;;;53.78;29.60;;;9.50;99.90;;;;;;7371070;19;20624;-79
2023/03/21 01:30:56;;;;;;;60.35;31.38;;;9.50;99.90;;;;;;7376056;19;20396;-78
2023/03/21 01:33:23;;;;;;;58.20;30.38;;;9.40;99.90;;;;;;7370222;19;20022;-78
2023/03/21 01:35:49;;;;;;;64.53;31.83;;;9.50;99.90;;;;;;7370789;19;20449;-79
2023/03/21 01:38:15;;;;;;;56.90;29.75;;;9.40;99.90;;;;;;7374494;19;20015;-79
2023/03/21 01:40:46;;;;;;;65.72;32.38;;;9.50;99.90;;;;;;7377113;19;20018;-79
2023/03/21 01:43:35;;;;;;;70.90;31.77;;;9.50;99.90;;;;;;7370976;19;20351;-78
2023/03/21 01:46:51;;;;;;;81.30;35.30;;;9.50;99.90;;;;;;7374945;19;20026;-78
2023/03/21 01:49:46;;;;;;;58.58;32.30;;;9.40;99.90;;;;;;7372706;19;20022;-78
2023/03/21 01:52:36;;;;;;;55.63;29.85;;;9.50;99.90;;;;;;7373919;19;20160;-78
2023/03/21 01:55:07;;;;;;;;;;;9.50;99.90;;;;;;7373722;19;20081;-80
2023/03/21 01:57:54;;;;;;;60.83;29.95;;;9.50;99.90;;;;;;7372798;19;19950;-80
2023/03/21 02:00:25;;;;;;;65.13;31.50;;;9.50;99.90;;;;;;7373056;19;20022;-80
2023/03/21 02:03:07;;;;;;;67.53;32.90;;;9.50;99.90;;;;;;7374044;19;20030;-80
2023/03/21 02:06:00;;;;;;;71.07;34.70;;;9.50;99.90;;;;;;7374344;19;20478;-79
2023/03/21 02:08:33;;;;;;;69.45;34.85;;;9.50;99.90;;;;;;7369209;19;20275;-80
2023/03/21 02:11:04;;;;;;;70.97;35.38;;;9.50;99.90;;;;;;7374489;19;20014;-78
2023/03/21 02:13:38;;;;;;;73.80;34.63;;;9.50;99.90;;;;;;7372378;19;20471;-78
2023/03/21 02:16:38;;;;;;;78.43;36.45;;;9.50;99.90;;;;;;7371388;19;20352;-78
2023/03/21 02:19:43;;;;;;;71.32;33.95;;;9.50;99.90;;;;;;7371273;19;20029;-70
2023/03/21 02:22:28;;;;;;;66.88;33.08;;;9.50;99.90;;;;;;7368166;19;20025;-71
2023/03/21 02:25:13;;;;;;;70.00;33.50;;;9.50;99.90;;;;;;7368216;19;20486;-71
2023/03/21 02:28:14;;;;;;;65.07;30.58;;;9.40;99.90;;;;;;7369204;19;20026;-71
2023/03/21 02:30:47;;;;;;;64.47;31.13;;;9.50;99.90;;;;;;7366474;19;20025;-71
2023/03/21 02:33:16;;;;;;;60.88;29.83;;;9.50;99.90;;;;;;7370560;19;20624;-70
2023/03/21 02:35:52;;;;;;;60.53;29.80;;;9.40;99.90;;;;;;7363749;19;20022;-69
2023/03/21 02:39:00;;;;;;;67.03;30.77;;;9.50;99.90;;;;;;7363363;19;20074;-71
2023/03/21 02:41:51;;;;;;;67.88;32.03;;;9.50;99.90;;;;;;7358221;19;20018;-71
2023/03/21 02:44:49;;;;;;;69.28;31.25;;;9.50;99.90;;;;;;7364204;19;20021;-70
2023/03/21 02:47:33;;;;;;;57.20;28.38;;;9.40;99.90;;;;;;7360928;19;20494;-70
2023/03/21 02:50:09;;;;;;;58.35;27.85;;;9.40;99.90;;;;;;7370194;19;20021;-70
2023/03/21 02:52:37;;;;;;;59.42;26.92;;;9.40;99.90;;;;;;7368470;19;20041;-71
2023/03/21 02:55:05;;;;;;;50.30;26.00;;;9.40;99.90;;;;;;7364933;19;20049;-70
2023/03/21 02:57:46;;;;;;;53.80;26.27;;;9.40;99.90;;;;;;7367654;19;20018;-71
2023/03/21 03:00:24;;;;;;;52.45;28.13;;;9.40;99.90;;;;;;7363922;19;20330;-77
2023/03/21 03:02:54;;;;;;;50.30;25.67;;;9.40;99.90;;;;;;7379500;19;20022;-81
2023/03/21 03:05:24;;;;;;;44.35;24.08;;;9.40;99.90;;;;;;7393912;19;20014;-79
2023/03/21 03:08:13;;;;;;;49.00;23.13;;;9.40;99.90;;;;;;7386986;19;20020;-70
2023/03/21 03:10:43;;;;;;;46.65;24.33;;;9.40;99.90;;;;;;7382424;19;20060;-78
2023/03/21 03:13:27;;;;;;;46.38;24.60;;;9.40;99.90;;;;;;7379321;19;20594;-70
2023/03/21 03:16:04;;;;;;;46.83;22.90;;;9.40;99.90;;;;;;7372103;19;20490;-70
2023/03/21 03:18:59;;;;;;;43.75;23.25;;;9.40;99.90;;;;;;7381790;19;20474;-71
2023/03/21 03:21:50;;;;;;;53.42;25.38;;;9.40;99.90;;;;;;7382339;19;20588;-71
2023/03/21 03:24:26;;;;;;;44.38;22.75;;;9.40;99.90;;;;;;7383436;19;20022;-70
2023/03/21 03:26:57;;;;;;;51.53;24.10;;;9.40;99.90;;;;;;7383386;19;20015;-70
2023/03/21 03:29:29;;;;;;;50.40;24.90;;;9.40;99.90;;;;;;7381033;19;20026;-70
2023/03/21 03:32:00;;;;;;;45.88;22.35;;;9.40;99.90;;;;;;7383212;19;20466;-70
2023/03/21 03:34:38;;;;;;;46.15;24.98;;;9.40;99.90;;;;;;7381300;19;20022;-70
2023/03/21 03:37:09;;;;;;;45.00;24.13;;;9.40;99.90;;;;;;7381192;19;21330;-70
2023/03/21 03:39:45;;;;;;;51.58;23.98;;;9.40;99.90;;;;;;7382784;19;20018;-70
2023/03/21 03:42:30;;;;;;;42.72;23.85;;;9.40;99.90;;;;;;7375595;19;20415;-70
2023/03/21 03:45:06;;;;;;;45.00;23.52;;;9.40;99.90;;;;;;7375464;19;20478;-71
2023/03/21 03:48:01;;;;;;;42.15;24.13;;;9.40;99.90;;;;;;7373486;19;20379;-70
2023/03/21 03:50:43;;;;;;;42.25;25.48;;;9.40;99.90;;;;;;7378411;19;20014;-71
2023/03/21 03:53:27;;;;;;;39.33;23.77;;;9.40;99.90;;;;;;7380966;19;20034;-71
2023/03/21 03:55:58;;;;;;;42.85;24.55;;;9.40;99.90;;;;;;7379361;19;20392;-71
2023/03/21 03:58:25;;;;;;;40.60;25.63;;;9.40;99.90;;;;;;7380789;19;20494;-71
2023/03/21 04:00:55;;;;;;;35.72;22.50;;;9.40;99.90;;;;;;7379940;19;20056;-71
2023/03/21 04:03:22;;;;;;;44.47;25.90;;;9.40;99.90;;;;;;7378713;19;20025;-71
2023/03/21 04:05:49;;;;;;;39.80;24.75;;;9.40;99.90;;;;;;7381198;19;20033;-71
2023/03/21 04:08:16;;;;;;;44.20;25.10;;;9.40;99.90;;;;;;7380387;19;20022;-71
2023/03/21 04:10:45;;;;;;;38.38;24.40;;;9.40;99.90;;;;;;7379329;19;20265;-71
2023/03/21 04:13:12;;;;;;;46.45;25.13;;;9.40;99.90;;;;;;7378478;19;20018;-71
2023/03/21 04:15:48;;;;;;;44.78;24.33;;;9.40;99.90;;;;;;7368998;19;20018;-71
2023/03/21 04:18:15;;;;;;;42.80;25.30;;;9.30;99.90;;;;;;7368084;19;20302;-71
2023/03/21 04:20:43;;;;;;;40.40;24.77;;;9.30;99.90;;;;;;7365758;19;21076;-71
2023/03/21 04:23:11;;;;;;;43.88;24.45;;;9.40;99.90;;;;;;7366902;19;20091;-71
2023/03/21 04:25:41;;;;;;;51.83;25.27;;;9.30;99.90;;;;;;7370846;19;20030;-71
2023/03/21 04:28:08;;;;;;;46.10;25.70;;;9.30;99.90;;;;;;7373201;19;20014;-71
2023/03/21 04:30:38;;;;;;;48.58;25.55;;;9.40;99.90;;;;;;7369060;19;20612;-71
2023/03/21 04:33:13;;;;;;;46.95;26.88;;;9.40;99.90;;;;;;7373575;19;20021;-72
2023/03/21 04:35:44;;;;;;;46.20;24.92;;;9.40;99.90;;;;;;7369119;19;20018;-72
2023/03/21 04:38:12;;;;;;;44.25;27.25;;;9.30;99.90;;;;;;7373333;19;20054;-71
2023/03/21 04:40:39;;;;;;;42.25;27.10;;;9.30;99.90;;;;;;7369796;19;20022;-71
2023/03/21 04:43:06;;;;;;;40.95;26.08;;;9.30;99.90;;;;;;7371302;19;20477;-71
2023/03/21 04:45:36;;;;;;;43.15;27.80;;;9.40;99.90;;;;;;7369698;19;20465;-73
2023/03/21 04:48:03;;;;;;;45.15;27.95;;;9.30;99.90;;;;;;7371387;19;20022;-71
2023/03/21 04:50:31;;;;;;;43.63;28.70;;;9.30;99.90;;;;;;7369212;19;20031;-71
2023/03/21 04:52:59;;;;;;;46.22;29.33;;;9.30;99.90;;;;;;7368170;19;20018;-71
2023/03/21 04:55:28;;;;;;;43.63;28.38;;;9.40;99.90;;;;;;7364949;19;20025;-72
2023/03/21 04:57:54;;;;;;;50.55;29.27;;;9.40;99.90;;;;;;7371517;19;20383;-73
2023/03/21 05:00:22;;;;;;;43.45;28.05;;;9.40;99.90;;;;;;7374210;19;20672;-72
2023/03/21 05:02:48;;;;;;;45.70;29.40;;;9.40;99.90;;;;;;7372554;19;20027;-71
2023/03/21 05:05:14;;;;;;;41.47;27.88;;;9.40;99.90;;;;;;7373508;19;20533;-71
2023/03/21 05:07:41;;;;;;;48.55;29.35;;;9.40;99.90;;;;;;7372030;19;20019;-71
2023/03/21 05:10:10;;;;;;;50.88;31.15;;;9.40;99.90;;;;;;7372673;19;20448;-71
2023/03/21 05:12:38;;;;;;;46.65;30.45;;;9.30;99.90;;;;;;7371890;19;20517;-71
2023/03/21 05:15:06;;;;;;;53.60;31.85;;;9.40;99.90;;;;;;7374620;19;20504;-71
2023/03/21 05:17:32;;;;;;;47.83;30.17;;;9.40;99.90;;;;;;7372927;19;20030;-71
2023/03/21 05:19:58;;;;;;;48.45;29.58;;;9.30;99.90;;;;;;7373153;19;20021;-71
2023/03/21 05:22:27;;;;;;;57.15;33.78;;;9.30;99.90;;;;;;7366941;19;20015;-72
2023/03/21 05:24:54;;;;;;;63.58;35.78;;;9.40;99.90;;;;;;7360059;19;20052;-71
2023/03/21 05:27:37;;;;;;;66.15;35.75;;;9.30;99.90;;;;;;7360989;19;20018;-79
2023/03/21 05:30:13;;;;;;;66.03;36.00;;;9.30;99.90;;;;;;7373433;19;20015;-80
2023/03/21 05:32:40;;;;;;;67.75;38.03;;;9.30;99.90;;;;;;7375639;19;20019;-79
2023/03/21 05:35:09;;;;;;;71.30;37.97;;;9.30;99.90;;;;;;7374167;19;20026;-81
2023/03/21 05:37:37;;;;;;;81.10;41.92;;;9.30;99.90;;;;;;7379909;19;20390;-80
2023/03/21 05:40:06;;;;;;;73.75;39.42;;;9.30;99.90;;;;;;7373140;19;20022;-79
2023/03/21 05:42:36;;;;;;;69.25;37.60;;;9.30;99.90;;;;;;7374627;19;20023;-80
2023/03/21 05:45:12;;;;;;;76.53;42.70;;;9.30;99.90;;;;;;7380603;19;20022;-80
2023/03/21 05:47:39;;;;;;;74.53;41.40;;;9.30;99.90;;;;;;7373699;19;20486;-81
2023/03/21 05:50:05;;;;;;;74.20;41.75;;;9.30;99.90;;;;;;7370365;19;20014;-81
2023/03/21 05:52:33;;;;;;;69.93;41.47;;;9.40;99.90;;;;;;7372702;19;20553;-81
2023/03/21 05:55:04;;;;;;;81.18;44.10;;;9.30;99.90;;;;;;7368184;19;20025;-81
2023/03/21 05:57:33;;;;;;;80.35;42.80;;;9.30;99.90;;;;;;7371512;19;20039;-74
2023/03/21 06:00:06;;;;;;;81.15;44.20;;;9.30;99.90;;;;;;7365618;19;20022;-74
2023/03/21 06:02:45;;;;;;;91.35;45.85;;;9.30;99.90;;;;;;7360730;19;20030;-74
2023/03/21 06:05:30;;;;;;;81.30;43.65;;;9.30;99.90;;;;;;7361701;19;20014;-75
2023/03/21 06:07:57;;;;;;;82.10;45.05;;;9.30;99.90;;;;;;7368333;19;20082;-74
2023/03/21 06:10:24;;;;;;;85.10;44.95;;;9.30;99.90;;;;;;7364963;19;20391;-74
2023/03/21 06:12:53;;;;;;;79.05;42.38;;;9.30;99.90;;;;;;7366418;19;20034;-74
2023/03/21 06:15:28;;;;;;;87.82;44.15;;;9.30;99.90;;;;;;7361765;19;20025;-75
2023/03/21 06:18:04;;;;;;;87.45;45.00;;;9.30;99.90;;;;;;7366627;19;20582;-75
2023/03/21 06:20:31;;;;;;;85.97;44.17;;;9.30;99.90;;;;;;7361452;19;20518;-75
2023/03/21 06:23:05;;;;;;;86.63;43.78;;;9.30;99.90;;;;;;7364826;19;20019;-76
2023/03/21 06:25:32;;;;;;;90.72;44.05;;;9.30;99.90;;;;;;7362356;19;20022;-76
2023/03/21 06:27:58;;;;;;;72.55;40.92;;;9.30;99.90;;;;;;7367019;19;20372;-75
2023/03/21 06:30:25;;;;;;;74.32;38.92;;;9.30;99.90;;;;;;7364782;19;20495;-75
2023/03/21 06:33:04;;;;;;;79.15;41.88;;;9.30;99.90;;;;;;7366805;19;20105;-75
2023/03/21 06:35:30;;;;;;;76.38;40.70;;;9.40;99.90;;;;;;7367056;19;20114;-76
2023/03/21 06:37:57;;;;;;;74.88;40.55;;;9.30;99.90;;;;;;7364310;19;21042;-75
2023/03/21 06:40:24;;;;;;;67.45;38.28;;;9.40;99.90;;;;;;7368378;19;20019;-75
2023/03/21 06:42:52;;;;;;;58.45;36.55;;;9.30;99.90;;;;;;7367811;19;20117;-75
2023/03/21 06:45:19;;;;;;;55.60;35.08;;;9.30;99.90;;;;;;7367898;19;20015;-75
2023/03/21 06:47:45;;;;;;;56.97;34.13;;;9.40;99.90;;;;;;7362211;19;20114;-75
2023/03/21 06:50:23;;;;;;;56.80;31.25;;;9.40;99.90;;;;;;7362470;19;20026;-75
2023/03/21 06:52:50;;;;;;;53.22;31.20;;;9.40;99.90;;;;;;7361563;19;20015;-75
2023/03/21 06:55:18;;;;;;;47.17;28.17;;;9.40;99.90;;;;;;7363297;19;20033;-75
2023/03/21 06:57:44;;;;;;;42.47;27.55;;;9.40;99.90;;;;;;7369051;19;20022;-74
2023/03/21 07:00:12;;;;;;;41.00;25.95;;;9.40;99.90;;;;;;7365789;19;20478;-75
2023/03/21 07:02:42;;;;;;;31.17;22.98;;;9.40;99.90;;;;;;7363340;19;20019;-78
2023/03/21 07:05:15;;;;;;;34.83;24.75;;;9.40;99.90;;;;;;7372265;19;20023;-78
2023/03/21 07:07:42;;;;;;;34.63;22.63;;;9.40;99.90;;;;;;7366095;19;20031;-77
2023/03/21 07:10:09;;;;;;;32.83;21.75;;;9.40;99.90;;;;;;7365110;19;20097;-77
2023/03/21 07:12:46;;;;;;;31.40;21.42;;;9.40;99.90;;;;;;7366805;19;20034;-77
2023/03/21 07:15:19;;;;;;;29.52;21.55;;;9.40;99.90;;;;;;7363892;19;20024;-78
2023/03/21 07:17:46;;;;;;;29.45;21.90;;;9.40;99.90;;;;;;7359890;19;20559;-77
2023/03/21 07:20:12;;;;;;;27.08;21.23;;;9.40;99.90;;;;;;7367827;19;20023;-78
2023/03/21 07:22:40;;;;;;;28.50;21.88;;;9.40;99.90;;;;;;7365091;19;20018;-78
2023/03/21 07:25:07;;;;;;;29.45;21.95;;;9.40;99.90;;;;;;7369161;19;20018;-77
2023/03/21 07:27:38;;;;;;;34.20;22.10;;;9.40;99.90;;;;;;7367654;19;20014;-76
2023/03/21 07:30:05;;;;;;;34.13;22.23;;;9.40;99.90;;;;;;7363257;19;20473;-78
2023/03/21 07:32:33;;;;;;;32.88;23.83;;;9.40;99.90;;;;;;7365467;19;20101;-79
2023/03/21 07:35:00;;;;;;;33.78;24.05;;;9.40;99.90;;;;;;7368324;19;20596;-77
2023/03/21 07:37:27;;;;;;;36.50;24.33;;;9.50;99.90;;;;;;7363924;19;20122;-76
2023/03/21 07:39:54;;;;;;;36.80;25.63;;;9.40;99.90;;;;;;7368448;19;20115;-78
2023/03/21 07:42:22;;;;;;;35.63;25.02;;;9.40;99.90;;;;;;7363727;19;20014;-78
2023/03/21 07:44:49;;;;;;;36.22;25.85;;;9.50;99.90;;;;;;7367221;19;20039;-78
2023/03/21 07:47:16;;;;;;;33.92;25.95;;;9.50;99.90;;;;;;7366887;19;20033;-77
2023/03/21 07:49:46;;;;;;;37.67;26.88;;;9.50;99.90;;;;;;7370775;19;20046;-78
2023/03/21 07:52:13;;;;;;;37.33;26.98;;;9.50;99.90;;;;;;7367558;19;20023;-77
2023/03/21 07:54:39;;;;;;;38.25;26.05;;;9.50;99.90;;;;;;7371990;19;20981;-78
2023/03/21 07:57:06;;;;;;;39.25;27.13;;;9.50;99.90;;;;;;7370145;19;20026;-77
2023/03/21 07:59:32;;;;;;;37.58;28.25;;;9.50;99.90;;;;;;7370428;19;20022;-77
2023/03/21 08:01:58;;;;;;;35.88;26.33;;;9.50;99.90;;;;;;7364318;19;20018;-77
2023/03/21 08:04:25;;;;;;;35.20;24.10;;;9.40;99.90;;;;;;7372723;19;20034;-78
2023/03/21 08:06:54;;;;;;;36.10;26.20;;;9.40;99.90;;;;;;7376850;19;20022;-77
2023/03/21 08:09:20;;;;;;;36.33;26.48;;;9.40;99.90;;;;;;7382856;19;20555;-78
2023/03/21 08:11:46;;;;;;;35.63;25.77;;;9.40;99.90;;;;;;7373944;19;20485;-78
2023/03/21 08:14:12;;;;;;;35.35;25.25;;;9.40;99.90;;;;;;7369621;19;20022;-75
2023/03/21 08:16:39;;;;;;;37.33;26.38;;;9.50;99.90;;;;;;7373040;19;20014;-77
2023/03/21 08:19:05;;;;;;;35.65;26.90;;;9.50;99.90;;;;;;7368384;19;20394;-76
2023/03/21 08:21:31;;;;;;;39.35;27.13;;;9.50;99.90;;;;;;7371956;19;20022;-77
2023/03/21 08:23:57;;;;;;;36.05;28.15;;;9.50;99.90;;;;;;7370111;19;21827;-76
2023/03/21 08:26:25;;;;;;;40.28;27.90;;;9.50;99.90;;;;;;7373296;19;20094;-76
2023/03/21 08:28:54;;;;;;;37.60;27.60;;;9.60;99.90;;;;;;7371046;19;20090;-76
2023/03/21 08:31:21;;;;;;;35.08;24.88;;;9.50;99.90;;;;;;7371761;19;20018;-75
2023/03/21 08:33:53;;;;;;;30.80;23.13;;;9.60;99.90;;;;;;7369258;19;20164;-75
2023/03/21 08:36:20;;;;;;;34.55;24.38;;;9.60;99.90;;;;;;7371270;19;20011;-74
2023/03/21 08:38:47;;;;;;;31.52;24.92;;;9.60;99.90;;;;;;7368903;19;20021;-74
2023/03/21 08:41:14;;;;;;;31.02;23.95;;;9.60;99.90;;;;;;7370867;19;20014;-75
2023/03/21 08:43:41;;;;;;;33.80;23.10;;;9.50;99.90;;;;;;7370866;19;20011;-74
2023/03/21 08:46:07;;;;;;;36.75;25.48;;;9.60;99.90;;;;;;7371512;19;20014;-73
2023/03/21 08:48:37;;;;;;;33.33;24.13;;;9.60;99.90;;;;;;7370448;19;20018;-75
2023/03/21 08:51:04;;;;;;;34.65;24.30;;;9.60;99.90;;;;;;7368579;19;21462;-74
2023/03/21 08:53:32;;;;;;;36.75;25.40;;;9.60;99.90;;;;;;7368077;19;20333;-75
2023/03/21 08:55:58;;;;;;;36.60;26.42;;;9.60;99.90;;;;;;7367375;19;20041;-76
2023/03/21 08:58:24;;;;;;;36.97;25.92;;;9.70;99.90;;;;;;7371787;19;20508;-76
2023/03/21 09:00:52;;;;;;;39.40;28.55;;;9.70;99.90;;;;;;7366317;19;20082;-77
2023/03/21 09:03:19;;;;;;;44.00;30.13;;;9.70;99.90;;;;;;7369876;19;20034;-77
2023/03/21 09:05:45;;;;;;;37.83;29.08;;;9.70;99.90;;;;;;7372959;19;20125;-76
2023/03/21 09:08:11;;;;;;;45.85;30.85;;;9.80;99.90;;;;;;7371768;19;20025;-75
2023/03/21 09:10:38;;;;;;;46.15;28.88;;;9.70;99.90;;;;;;7366871;19;20024;-75
2023/03/21 09:13:05;;;;;;;40.58;29.10;;;9.60;99.90;;;;;;7369398;19;20531;-75
2023/03/21 09:15:34;;;;;;;41.75;29.50;;;9.70;99.90;;;;;;7364658;19;20022;-75
2023/03/21 09:18:12;;;;;;;41.92;30.70;;;9.60;99.90;;;;;;7366188;19;20102;-74
2023/03/21 09:20:39;;;;;;;38.60;28.70;;;9.70;99.90;;;;;;7364071;19;20023;-74
2023/03/21 09:23:06;;;;;;;41.15;29.77;;;9.70;99.90;;;;;;7368869;19;20022;-73
2023/03/21 09:25:33;;;;;;;43.42;30.80;;;9.70;99.90;;;;;;7367690;19;20384;-74
2023/03/21 09:28:01;;;;;;;42.17;28.67;;;9.70;99.90;;;;;;7370181;19;20600;-72
2023/03/21 09:30:28;;;;;;;46.17;29.92;;;9.80;99.90;;;;;;7372126;19;20022;-73
2023/03/21 09:32:54;;;;;;;43.10;27.95;;;9.80;99.90;;;;;;7364793;19;20120;-73
2023/03/21 09:35:23;;;;;;;40.53;26.98;;;9.80;99.90;;;;;;7369385;19;20090;-72
2023/03/21 09:37:49;;;;;;;43.72;28.85;;;9.80;99.90;;;;;;7368778;19;20526;-73
2023/03/21 09:40:33;;;;;;;39.85;28.83;;;9.80;99.90;;;;;;7371010;19;20576;-72
2023/03/21 09:43:03;;;;;;;37.63;27.80;;;9.80;99.90;;;;;;7368785;19;20029;-73
2023/03/21 09:45:29;;;;;;;40.13;27.42;;;9.80;99.90;;;;;;7364222;19;20628;-74
2023/03/21 09:47:57;;;;;;;35.88;23.63;;;9.80;99.90;;;;;;7360740;19;20082;-72
2023/03/21 09:50:36;;;;;;;41.50;27.98;;;9.80;99.90;;;;;;7366621;19;20052;-73
2023/03/21 09:53:17;;;;;;;45.58;28.25;;;9.80;99.90;;;;;;7370266;19;20050;-72
2023/03/21 09:55:45;;;;;;;41.43;27.33;;;9.80;99.90;;;;;;7367809;19;20038;-74
2023/03/21 09:58:29;;;;;;;40.97;26.38;;;9.80;99.90;;;;;;7370428;19;20282;-72
2023/03/21 10:01:09;;;;;;;38.85;26.63;;;9.90;99.90;;;;;;7368445;19;20494;-72
2023/03/21 10:03:36;;;;;;;40.33;27.45;;;9.90;99.90;;;;;;7359375;19;20021;-73
2023/03/21 10:06:14;;;;;;;38.55;27.60;;;9.90;99.90;;;;;;7365917;19;20025;-72
2023/03/21 10:08:43;;;;;;;30.58;23.60;;;9.90;99.90;;;;;;7357529;19;20018;-73
2023/03/21 10:11:19;;;;;;;38.22;25.48;;;9.90;99.90;;;;;;7361173;19;20014;-73
2023/03/21 10:13:48;;;;;;;39.72;25.63;;;9.90;99.90;;;;;;7360685;19;20235;-73
2023/03/21 10:16:37;;;;;;;37.33;26.48;;;9.90;99.90;;;;;;7364692;19;20019;-72
2023/03/21 10:19:10;;;;;;;38.17;26.27;;;9.90;99.90;;;;;;7364676;19;20035;-72
2023/03/21 10:21:42;;;;;;;34.47;25.35;;;10.00;99.90;;;;;;7359362;19;20030;-72
2023/03/21 10:24:18;;;;;;;33.53;24.77;;;10.00;99.90;;;;;;7364593;19;20038;-73
2023/03/21 10:26:46;;;;;;;37.30;26.27;;;10.10;99.90;;;;;;7363566;19;20045;-73
2023/03/21 10:29:15;;;;;;;35.67;24.98;;;10.10;99.90;;;;;;7366611;19;20109;-75
2023/03/21 10:31:43;;;;;;;33.25;24.60;;;10.10;99.90;;;;;;7363802;19;20018;-73
2023/03/21 10:34:28;;;;;;;36.15;25.77;;;10.10;99.90;;;;;;7369474;19;20367;-74
2023/03/21 10:36:59;;;;;;;32.53;24.65;;;10.20;99.90;;;;;;7365722;19;20011;-74
2023/03/21 10:39:33;;;;;;;37.15;24.15;;;10.20;99.90;;;;;;7369234;19;20018;-75
2023/03/21 10:42:00;;;;;;;30.85;22.88;;;10.20;99.90;;;;;;7366018;19;20026;-75
2023/03/21 10:44:34;;;;;;;37.42;23.88;;;10.30;99.90;;;;;;7367359;19;20106;-75
2023/03/21 10:47:09;;;;;;;32.08;22.17;;;10.30;99.90;;;;;;7376694;19;20044;-74
2023/03/21 10:49:38;;;;;;;31.30;21.33;;;10.30;99.90;;;;;;7373932;19;20019;-74
2023/03/21 10:52:08;;;;;;;28.55;20.10;;;10.30;99.90;;;;;;7384279;19;20023;-74
2023/03/21 10:54:34;;;;;;;30.40;20.45;;;10.30;99.90;;;;;;7380621;19;20014;-74
2023/03/21 10:57:21;;;;;;;29.23;21.20;;;10.30;99.90;;;;;;7372090;19;20507;-76
2023/03/21 10:59:58;;;;;;;31.30;22.83;;;10.30;99.90;;;;;;7374308;19;20022;-77
2023/03/21 11:02:34;;;;;;;29.70;21.67;;;10.40;99.90;;;;;;7371978;19;20022;-77
2023/03/21 11:05:07;;;;;;;27.33;21.42;;;10.60;99.90;;;;;;7368761;19;20813;-77
2023/03/21 11:07:36;;;;;;;30.10;20.98;;;10.60;99.90;;;;;;7368587;19;20022;-76
2023/03/21 11:10:13;;;;;;;30.55;22.48;;;10.70;99.90;;;;;;7364900;19;20018;-73
2023/03/21 11:12:45;;;;;;;26.67;20.98;;;10.70;99.90;;;;;;7366586;19;20501;-77
2023/03/21 11:15:26;;;;;;;29.60;21.33;;;10.80;99.90;;;;;;7368764;19;20493;-74
2023/03/21 11:17:52;;;;;;;28.13;20.10;;;10.90;99.90;;;;;;7369246;19;20047;-74
2023/03/21 11:20:19;;;;;;;24.65;20.73;;;10.90;99.90;;;;;;7369116;19;20018;-78
2023/03/21 11:22:47;;;;;;;25.75;20.40;;;11.00;99.90;;;;;;7369282;19;20132;-74
2023/03/21 11:25:35;;;;;;;28.60;19.50;;;11.10;99.90;;;;;;7373891;19;20732;-74
2023/03/21 11:28:11;;;;;;;30.52;20.23;;;11.20;99.90;;;;;;7375719;19;20366;-74
2023/03/21 11:30:53;;;;;;;26.52;19.75;;;11.20;99.90;;;;;;7377404;19;20038;-74
2023/03/21 11:33:21;;;;;;;24.92;19.88;;;11.30;99.90;;;;;;7371212;19;20023;-78
2023/03/21 11:36:01;;;;;;;23.98;16.65;;;11.40;99.90;;;;;;7373916;19;20657;-74
2023/03/21 11:38:37;;;;;;;26.45;16.27;;;11.50;99.90;;;;;;7368238;19;20019;-78
2023/03/21 11:41:04;;;;;;;20.23;15.57;;;11.50;99.90;;;;;;7379529;19;20085;-74
2023/03/21 11:43:37;;;;;;;24.20;16.90;;;11.60;99.90;;;;;;7372655;19;20042;-74
2023/03/21 11:46:05;;;;;;;21.85;15.88;;;11.70;99.90;;;;;;7372567;19;20015;-74
2023/03/21 11:48:42;;;;;;;19.90;15.32;;;11.70;99.90;;;;;;7376599;19;20400;-78
2023/03/21 11:51:36;;;;;;;21.75;15.07;;;11.70;99.90;;;;;;7376245;19;20025;-75
2023/03/21 11:54:12;;;;;;;14.45;12.82;;;11.80;99.90;;;;;;7373189;19;20573;-77
2023/03/21 11:56:49;;;;;;;18.20;14.07;;;11.80;99.90;;;;;;7384549;19;20018;-76
2023/03/21 11:59:56;;;;;;;19.98;11.90;;;11.70;99.90;;;;;;7380668;19;20026;-75
2023/03/21 12:02:40;;;;;;;17.75;13.02;;;11.70;99.90;;;;;;7373897;19;20042;-75
2023/03/21 12:05:11;;;;;;;18.38;12.02;;;11.90;99.90;;;;;;7375873;19;20026;-77
2023/03/21 12:07:59;;;;;;;16.77;11.18;;;12.00;99.90;;;;;;7390442;19;20022;-77
2023/03/21 12:10:32;;;;;;;18.98;10.70;;;12.20;99.90;;;;;;7393549;19;20064;-77
2023/03/21 12:13:21;;;;;;;15.13;9.90;;;12.30;99.90;;;;;;7388121;19;20593;-78
2023/03/21 12:16:22;;;;;;;13.80;10.95;;;12.20;99.90;;;;;;7385270;19;20025;-78
2023/03/21 12:19:26;;;;;;;15.57;10.02;;;12.20;99.90;;;;;;7378630;19;20366;-78
2023/03/21 12:22:19;;;;;;;14.20;10.13;;;12.30;99.90;;;;;;7378834;19;20066;-78
2023/03/21 12:24:58;;;;;;;18.75;10.07;;;12.30;99.90;;;;;;7375630;19;20018;-77
2023/03/21 12:27:52;;;;;;;14.10;9.60;;;12.20;99.90;;;;;;7384207;19;20447;-77
2023/03/21 12:30:18;;;;;;;18.33;10.10;;;12.10;99.90;;;;;;7382175;19;20018;-77
2023/03/21 12:33:20;;;;;;;14.73;9.48;;;11.90;99.90;;;;;;7384055;19;20504;-77
2023/03/21 12:36:24;;;;;;;15.95;10.73;;;11.80;99.90;;;;;;7383316;19;20353;-76
2023/03/21 12:39:11;;;;;;;14.27;10.90;;;11.80;99.90;;;;;;7390544;19;20093;-75
2023/03/21 12:42:01;;;;;;;13.98;10.25;;;11.70;99.90;;;;;;7393312;19;20019;-76
2023/03/21 12:44:34;;;;;;;11.50;9.88;;;11.70;99.90;;;;;;7389098;19;20039;-75
2023/03/21 12:47:09;;;;;;;15.40;11.13;;;11.70;99.90;;;;;;7391817;19;20389;-75
2023/03/21 12:49:55;;;;;;;13.48;10.63;;;11.70;99.90;;;;;;7381627;19;20090;-73
2023/03/21 12:52:28;;;;;;;13.85;9.82;;;11.70;99.90;;;;;;7372695;19;20026;-73
2023/03/21 12:55:00;;;;;;;17.35;10.10;;;11.70;99.90;;;;;;7365136;19;20794;-73
2023/03/21 12:57:35;;;;;;;14.65;10.23;;;11.60;99.90;;;;;;7371215;19;20022;-74
2023/03/21 13:00:27;;;;;;;13.43;10.57;;;11.70;99.90;;;;;;7373109;19;20431;-74
2023/03/21 13:03:11;;;;;;;16.00;10.98;;;11.60;99.90;;;;;;7370902;19;20018;-73
2023/03/21 13:06:01;;;;;;;16.83;11.25;;;11.70;99.90;;;;;;7369037;19;20025;-75